Time;durP1;ratioP1;P1;durP2;ratioP2;P2;SDS_P1;SDS_P2;PMS_P1;PMS_P2;Temp;Humidity;BMP_temperature;BMP_pressure;BME280_temperature;BME280_humidity;BME280_pressure;Samples;Min_cycle;Max_cycle;Signal;HPM_P1;HPM_P2
2021/11/16 00:01:10;;;;;;;26.00;18.33;;;5.70;83.80;;;;;;5058378;28;20562;-87
2021/11/16 00:03:36;;;;;;;24.70;17.17;;;5.70;83.90;;;;;;5058716;28;20214;-87
2021/11/16 00:06:02;;;;;;;25.83;17.83;;;5.70;83.90;;;;;;5058049;28;20175;-87
2021/11/16 00:08:28;;;;;;;25.33;17.87;;;5.70;84.00;;;;;;5076285;28;20178;-86
2021/11/16 00:10:54;;;;;;;27.77;17.50;;;5.70;84.40;;;;;;5058354;28;20551;-86
2021/11/16 00:13:20;;;;;;;27.80;18.57;;;5.70;84.60;;;;;;5058036;28;20198;-87
2021/11/16 00:15:46;;;;;;;27.30;18.07;;;5.70;84.40;;;;;;5057996;28;20214;-87
2021/11/16 00:18:14;;;;;;;28.47;17.70;;;5.70;84.60;;;;;;5076061;28;20232;-86
2021/11/16 00:20:45;;;;;;;28.03;17.70;;;5.70;84.80;;;;;;5057817;28;20180;-86
2021/11/16 00:23:21;;;;;;;30.33;18.40;;;5.70;84.90;;;;;;5057652;28;20391;-86
2021/11/16 00:25:50;;;;;;;24.50;17.20;;;5.70;85.10;;;;;;5057456;28;20258;-86
2021/11/16 00:28:16;;;;;;;33.83;18.23;;;5.60;85.30;;;;;;5075338;28;20201;-86
2021/11/16 00:30:42;;;;;;;28.50;19.33;;;5.70;85.50;;;;;;5075302;28;20627;-86
2021/11/16 00:33:09;;;;;;;26.73;17.73;;;5.70;85.60;;;;;;5057720;28;20305;-87
2021/11/16 00:35:38;;;;;;;29.60;18.53;;;5.70;85.70;;;;;;5075383;28;20194;-86
2021/11/16 00:38:09;;;;;;;27.43;17.60;;;5.70;85.80;;;;;;5057212;28;20686;-86
2021/11/16 00:40:36;;;;;;;28.90;17.73;;;5.70;85.70;;;;;;5075821;28;20174;-87
2021/11/16 00:43:04;;;;;;;26.93;18.97;;;5.70;85.80;;;;;;5075724;28;20197;-87
2021/11/16 00:45:30;;;;;;;26.63;18.40;;;5.70;85.90;;;;;;5075596;28;20171;-87
2021/11/16 00:47:56;;;;;;;27.57;18.87;;;5.60;85.60;;;;;;5057394;28;20185;-86
2021/11/16 00:50:22;;;;;;;27.90;18.17;;;5.70;85.50;;;;;;5057370;28;20564;-86
2021/11/16 00:52:49;;;;;;;29.57;18.40;;;5.70;85.50;;;;;;5057402;28;20210;-87
2021/11/16 00:55:15;;;;;;;29.20;18.67;;;5.60;85.40;;;;;;5057119;28;20203;-86
2021/11/16 00:57:41;;;;;;;29.07;19.20;;;5.60;85.20;;;;;;5056947;28;20232;-86
2021/11/16 01:00:09;;;;;;;31.93;19.37;;;5.60;85.40;;;;;;5056916;28;20233;-88
2021/11/16 01:02:35;;;;;;;26.60;18.93;;;5.60;85.40;;;;;;5056898;28;20205;-87
2021/11/16 01:05:01;;;;;;;26.10;17.77;;;5.50;85.60;;;;;;5074988;28;20182;-87
2021/11/16 01:07:26;;;;;;;27.70;19.53;;;5.50;85.60;;;;;;5056854;28;20658;-87
2021/11/16 01:09:52;;;;;;;28.43;19.30;;;5.50;85.80;;;;;;5056761;28;20185;-87
2021/11/16 01:12:18;;;;;;;27.87;18.07;;;5.50;85.90;;;;;;5056809;28;20292;-87
2021/11/16 01:14:45;;;;;;;29.50;19.03;;;5.50;86.00;;;;;;5056541;28;20642;-87
2021/11/16 01:17:12;;;;;;;29.77;18.90;;;5.50;86.00;;;;;;5074553;28;20660;-88
2021/11/16 01:19:38;;;;;;;29.37;18.53;;;5.50;85.90;;;;;;5074525;28;20638;-87
2021/11/16 01:22:21;;;;;;;26.80;18.03;;;5.50;85.50;;;;;;5074590;28;20175;-87
2021/11/16 01:24:48;;;;;;;29.17;17.80;;;5.40;85.20;;;;;;5056065;28;20237;-87
2021/11/16 01:27:18;;;;;;;30.63;18.30;;;5.50;85.40;;;;;;5056568;28;20185;-88
2021/11/16 01:29:46;;;;;;;28.70;18.73;;;5.50;85.50;;;;;;5056520;28;20232;-88
2021/11/16 01:32:26;;;;;;;30.60;18.33;;;5.50;85.30;;;;;;5055692;28;20179;-87
2021/11/16 01:34:52;;;;;;;28.33;18.47;;;5.50;85.10;;;;;;5074080;28;20301;-87
2021/11/16 01:37:18;;;;;;;27.53;18.47;;;5.40;85.20;;;;;;5056206;28;20181;-87
2021/11/16 01:39:44;;;;;;;30.90;19.90;;;5.40;85.30;;;;;;5074121;28;20174;-88
2021/11/16 01:42:10;;;;;;;28.23;19.23;;;5.40;85.70;;;;;;5074153;28;20173;-88
2021/11/16 01:44:36;;;;;;;29.13;19.27;;;5.40;85.30;;;;;;5073881;28;20204;-87
2021/11/16 01:47:02;;;;;;;28.87;19.67;;;5.40;85.40;;;;;;5056055;28;20215;-87
2021/11/16 01:49:27;;;;;;;31.10;20.93;;;5.40;85.50;;;;;;5074000;28;20180;-87
2021/11/16 01:51:53;;;;;;;29.47;19.13;;;5.40;85.70;;;;;;5073925;28;20190;-88
2021/11/16 01:54:19;;;;;;;34.23;19.93;;;5.40;85.80;;;;;;5055883;28;20220;-87
2021/11/16 01:56:46;;;;;;;29.37;20.50;;;5.30;85.70;;;;;;5073785;28;20257;-87
2021/11/16 01:59:13;;;;;;;33.93;21.97;;;5.40;85.40;;;;;;5073909;28;20569;-87
2021/11/16 02:01:40;;;;;;;29.37;20.40;;;5.30;85.60;;;;;;5073969;28;20180;-87
2021/11/16 02:04:08;;;;;;;30.53;20.90;;;5.30;85.70;;;;;;5055693;28;20248;-88
2021/11/16 02:06:40;;;;;;;31.30;21.27;;;5.30;85.20;;;;;;5055740;28;20186;-87
2021/11/16 02:09:08;;;;;;;33.17;20.63;;;5.30;85.10;;;;;;5073629;28;20239;-87
2021/11/16 02:11:34;;;;;;;30.37;20.67;;;5.30;85.00;;;;;;5055590;28;20234;-87
2021/11/16 02:14:01;;;;;;;31.53;22.27;;;5.30;85.20;;;;;;5073403;28;20199;-87
2021/11/16 02:16:27;;;;;;;38.20;22.53;;;5.30;85.10;;;;;;5055764;28;20205;-87
2021/11/16 02:18:53;;;;;;;33.87;22.07;;;5.30;85.10;;;;;;5055444;28;20641;-87
2021/11/16 02:21:19;;;;;;;31.23;21.00;;;5.30;85.00;;;;;;5055417;28;20174;-87
2021/11/16 02:23:46;;;;;;;33.30;21.60;;;5.30;85.40;;;;;;5055445;28;20205;-88
2021/11/16 02:26:12;;;;;;;31.33;21.50;;;5.30;85.70;;;;;;5055318;28;20530;-87
2021/11/16 02:28:43;;;;;;;33.57;21.70;;;5.30;85.20;;;;;;5073405;28;20203;-87
2021/11/16 02:31:09;;;;;;;36.80;23.17;;;5.30;85.40;;;;;;5055427;28;20177;-87
2021/11/16 02:33:34;;;;;;;36.27;23.60;;;5.30;85.20;;;;;;5073111;28;20229;-87
2021/11/16 02:36:00;;;;;;;35.63;21.43;;;5.30;85.20;;;;;;5073344;28;20185;-87
2021/11/16 02:38:26;;;;;;;30.03;20.33;;;5.30;85.40;;;;;;5073250;28;20169;-87
2021/11/16 02:40:53;;;;;;;31.50;21.67;;;5.30;84.80;;;;;;5055268;28;20174;-87
2021/11/16 02:43:20;;;;;;;30.17;19.90;;;5.30;85.10;;;;;;5072595;28;20562;-86
2021/11/16 02:45:47;;;;;;;30.73;20.87;;;5.30;85.20;;;;;;5054956;28;20186;-87
2021/11/16 02:48:13;;;;;;;35.00;21.27;;;5.30;85.40;;;;;;5055408;28;20700;-86
2021/11/16 02:51:06;;;;;;;31.50;21.37;;;5.30;85.60;;;;;;5055281;28;20178;-87
2021/11/16 02:53:34;;;;;;;33.57;22.13;;;5.30;85.70;;;;;;5070921;28;20701;-87
2021/11/16 02:56:00;;;;;;;32.50;21.80;;;5.30;85.70;;;;;;5055191;28;20179;-86
2021/11/16 02:58:26;;;;;;;31.57;21.83;;;5.30;85.50;;;;;;5073138;28;20642;-87
2021/11/16 03:00:56;;;;;;;34.37;22.37;;;5.30;85.20;;;;;;5073029;28;20204;-87
2021/11/16 03:03:21;;;;;;;34.33;22.47;;;5.30;85.00;;;;;;5055030;28;20202;-86
2021/11/16 03:05:48;;;;;;;33.80;23.30;;;5.30;85.10;;;;;;5055166;28;20182;-87
2021/11/16 03:08:22;;;;;;;31.77;22.63;;;5.30;85.20;;;;;;5072982;28;20206;-88
2021/11/16 03:10:51;;;;;;;37.10;23.67;;;5.30;85.00;;;;;;5072996;28;20167;-86
2021/11/16 03:13:17;;;;;;;36.87;24.63;;;5.30;85.20;;;;;;5054910;28;20282;-87
2021/11/16 03:15:43;;;;;;;38.80;25.17;;;5.30;85.50;;;;;;5054849;28;20209;-86
2021/11/16 03:18:10;;;;;;;35.50;23.80;;;5.30;85.60;;;;;;5054950;28;20175;-86
2021/11/16 03:20:36;;;;;;;35.37;24.50;;;5.30;85.70;;;;;;5054860;28;20232;-87
2021/11/16 03:23:35;;;;;;;38.40;25.60;;;5.30;85.80;;;;;;5054692;28;20205;-87
2021/11/16 03:25:58;;;;;;;34.10;22.47;;;5.30;86.10;;;;;;5068794;28;20186;-86
2021/11/16 03:28:28;;;;;;;34.67;22.83;;;5.30;85.30;;;;;;5054807;28;20185;-86
2021/11/16 03:30:56;;;;;;;37.20;22.63;;;5.30;85.30;;;;;;5072693;28;20232;-87
2021/11/16 03:33:24;;;;;;;34.80;22.80;;;5.30;85.30;;;;;;5072481;28;20210;-87
2021/11/16 03:35:50;;;;;;;36.57;22.27;;;5.30;85.50;;;;;;5054597;28;20206;-86
2021/11/16 03:38:18;;;;;;;36.87;22.73;;;5.30;85.30;;;;;;5054727;28;20174;-87
2021/11/16 03:40:46;;;;;;;35.93;24.27;;;5.20;85.50;;;;;;5054728;28;20555;-86
2021/11/16 03:43:13;;;;;;;33.07;23.13;;;5.30;85.50;;;;;;5054537;28;20707;-86
2021/11/16 03:45:39;;;;;;;36.57;23.00;;;5.30;85.60;;;;;;5054604;28;20186;-87
2021/11/16 03:48:05;;;;;;;36.03;23.27;;;5.30;85.50;;;;;;5054591;28;20182;-87
2021/11/16 03:50:32;;;;;;;37.33;24.97;;;5.30;85.50;;;;;;5054618;28;20197;-87
2021/11/16 03:52:59;;;;;;;31.87;21.30;;;5.30;85.60;;;;;;5054508;28;20290;-87
2021/11/16 03:55:29;;;;;;;36.20;22.90;;;5.30;85.40;;;;;;5073369;28;20201;-87
2021/11/16 03:57:57;;;;;;;36.97;22.73;;;5.30;85.30;;;;;;5076106;28;20159;-87
2021/11/16 04:00:30;;;;;;;35.27;23.57;;;5.30;85.30;;;;;;5075883;28;20175;-86
2021/11/16 04:02:56;;;;;;;34.57;23.13;;;5.30;85.30;;;;;;5075843;28;20195;-86
2021/11/16 04:05:24;;;;;;;35.30;22.93;;;5.30;85.40;;;;;;5076109;28;20186;-86
2021/11/16 04:07:50;;;;;;;37.30;22.60;;;5.30;85.20;;;;;;5057882;28;20178;-86
2021/11/16 04:10:16;;;;;;;34.77;23.37;;;5.30;85.30;;;;;;5057946;28;20576;-86
2021/11/16 04:12:43;;;;;;;36.20;23.23;;;5.30;85.20;;;;;;5075703;28;20178;-86
2021/11/16 04:15:10;;;;;;;31.93;21.97;;;5.30;85.30;;;;;;5057828;28;20202;-86
2021/11/16 04:17:39;;;;;;;34.00;21.90;;;5.30;85.50;;;;;;5075621;28;20182;-87
2021/11/16 04:20:26;;;;;;;35.13;22.20;;;5.30;85.00;;;;;;5057681;28;20208;-87
2021/11/16 04:22:53;;;;;;;38.70;23.13;;;5.30;85.00;;;;;;5057734;28;20210;-86
2021/11/16 04:25:19;;;;;;;33.73;22.57;;;5.30;85.20;;;;;;5057570;28;20187;-86
2021/11/16 04:27:46;;;;;;;39.00;24.77;;;5.30;85.50;;;;;;5075526;28;20263;-88
2021/11/16 04:30:16;;;;;;;35.23;23.57;;;5.30;85.50;;;;;;5057392;28;20585;-87
2021/11/16 04:32:42;;;;;;;35.60;24.03;;;5.30;85.50;;;;;;5057199;28;20183;-86
2021/11/16 04:35:10;;;;;;;37.27;24.53;;;5.30;85.90;;;;;;5057401;28;20263;-86
2021/11/16 04:37:38;;;;;;;36.37;23.40;;;5.30;85.90;;;;;;5057421;28;20176;-87
2021/11/16 04:40:05;;;;;;;34.83;23.10;;;5.30;85.90;;;;;;5075248;28;20202;-87
2021/11/16 04:42:31;;;;;;;39.57;24.80;;;5.30;85.90;;;;;;5057036;28;20183;-86
2021/11/16 04:44:57;;;;;;;35.90;23.27;;;5.30;86.00;;;;;;5057164;28;20657;-86
2021/11/16 04:47:34;;;;;;;39.13;24.33;;;5.30;86.10;;;;;;5075030;28;20264;-86
2021/11/16 04:50:12;;;;;;;38.80;24.90;;;5.30;86.50;;;;;;5075007;28;20159;-87
2021/11/16 05:03:16;;;;;;;38.70;25.03;;;5.20;86.50;;;;;;5075135;28;20697;-87
2021/11/16 05:05:42;;;;;;;42.40;26.57;;;5.20;86.40;;;;;;5074729;28;20177;-87
2021/11/16 05:08:08;;;;;;;41.00;26.50;;;5.20;86.30;;;;;;5073740;28;20694;-87
2021/11/16 05:10:34;;;;;;;38.97;25.17;;;5.20;86.30;;;;;;5074724;28;20185;-88
2021/11/16 05:13:00;;;;;;;40.00;25.00;;;5.20;86.00;;;;;;5074944;28;20565;-87
2021/11/16 05:15:27;;;;;;;43.90;26.00;;;5.20;86.00;;;;;;5074367;28;20275;-87
2021/11/16 05:17:54;;;;;;;39.37;25.17;;;5.30;85.90;;;;;;5056591;28;20179;-87
2021/11/16 05:20:21;;;;;;;38.23;24.83;;;5.30;85.80;;;;;;5056629;28;20208;-87
2021/11/16 05:22:50;;;;;;;47.40;25.50;;;5.20;85.70;;;;;;5056294;28;20265;-87
2021/11/16 05:25:16;;;;;;;41.97;26.63;;;5.20;85.60;;;;;;5074257;28;20179;-87
2021/11/16 05:27:42;;;;;;;41.07;25.57;;;5.20;85.60;;;;;;5056391;28;20560;-87
2021/11/16 05:30:11;;;;;;;41.33;27.10;;;5.20;85.50;;;;;;5056423;28;20182;-86
2021/11/16 05:32:38;;;;;;;44.53;25.97;;;5.30;85.70;;;;;;5056086;28;20206;-87
2021/11/16 05:35:06;;;;;;;44.60;26.63;;;5.20;85.80;;;;;;5056407;28;20205;-87
2021/11/16 05:37:32;;;;;;;44.50;27.80;;;5.30;86.10;;;;;;5056245;28;20184;-87
2021/11/16 05:39:58;;;;;;;40.00;25.57;;;5.20;85.90;;;;;;5056098;28;20175;-87
2021/11/16 05:42:23;;;;;;;41.90;26.00;;;5.20;85.60;;;;;;5056142;28;20231;-87
2021/11/16 05:44:49;;;;;;;43.83;26.50;;;5.20;85.90;;;;;;5056019;28;20301;-86
2021/11/16 05:47:15;;;;;;;42.97;26.37;;;5.20;86.30;;;;;;5056172;28;20609;-86
2021/11/16 05:49:41;;;;;;;43.03;24.97;;;5.20;86.20;;;;;;5055992;28;20224;-87
2021/11/16 05:52:07;;;;;;;47.33;28.13;;;5.10;86.40;;;;;;5055911;28;20181;-86
2021/11/16 05:54:34;;;;;;;45.40;27.27;;;5.20;86.60;;;;;;5055683;28;20297;-86
2021/11/16 05:57:01;;;;;;;43.93;27.57;;;5.20;86.70;;;;;;5055882;28;20174;-86
2021/11/16 05:59:33;;;;;;;44.13;27.13;;;5.10;86.90;;;;;;5073646;28;20650;-88
2021/11/16 06:02:07;;;;;;;47.33;29.20;;;5.10;86.90;;;;;;5074055;28;20155;-87
2021/11/16 06:04:33;;;;;;;45.07;27.43;;;5.10;86.30;;;;;;5073486;28;20197;-87
2021/11/16 06:07:00;;;;;;;59.37;29.80;;;5.10;86.30;;;;;;5073741;28;20175;-86
2021/11/16 06:09:27;;;;;;;42.93;25.87;;;5.10;86.40;;;;;;5073477;28;20189;-86
2021/11/16 06:11:56;;;;;;;48.67;27.43;;;5.10;86.70;;;;;;5055751;28;20188;-87
2021/11/16 06:14:22;;;;;;;44.17;26.57;;;5.10;86.90;;;;;;5055247;28;20202;-86
2021/11/16 06:16:48;;;;;;;47.07;26.90;;;5.10;87.10;;;;;;5073570;28;20211;-86
2021/11/16 06:19:17;;;;;;;46.53;27.47;;;5.10;87.20;;;;;;5073208;28;20249;-86
2021/11/16 06:21:43;;;;;;;46.07;28.20;;;5.10;87.20;;;;;;5055364;28;20209;-86
2021/11/16 06:24:09;;;;;;;44.83;27.33;;;5.00;87.00;;;;;;5055740;28;20225;-86
2021/11/16 06:26:34;;;;;;;45.63;27.63;;;5.10;86.60;;;;;;5055414;28;20181;-87
2021/11/16 06:29:02;;;;;;;44.07;26.83;;;5.10;86.70;;;;;;5073356;28;20189;-87
2021/11/16 06:31:29;;;;;;;47.37;27.00;;;5.10;87.00;;;;;;5073174;28;20183;-87
2021/11/16 06:33:59;;;;;;;44.70;26.97;;;5.10;87.00;;;;;;5073022;28;20206;-85
2021/11/16 06:36:33;;;;;;;47.93;29.00;;;5.10;87.10;;;;;;5073383;28;20643;-87
2021/11/16 06:39:00;;;;;;;46.27;27.50;;;5.10;86.70;;;;;;5055257;28;20166;-86
2021/11/16 06:41:26;;;;;;;47.17;27.37;;;5.10;86.70;;;;;;5055073;28;20658;-86
2021/11/16 06:43:52;;;;;;;49.40;28.47;;;5.10;86.70;;;;;;5073034;28;20562;-86
2021/11/16 06:46:17;;;;;;;46.27;27.97;;;5.10;86.90;;;;;;5073135;28;20166;-87
2021/11/16 06:48:44;;;;;;;46.73;26.73;;;5.10;86.70;;;;;;5055166;28;20301;-87
2021/11/16 06:51:09;;;;;;;46.20;28.13;;;5.10;86.80;;;;;;5073078;28;20182;-87
2021/11/16 06:53:36;;;;;;;55.17;30.57;;;5.10;87.10;;;;;;5072917;28;20606;-87
2021/11/16 06:56:04;;;;;;;43.50;27.43;;;5.10;87.30;;;;;;5054877;28;20198;-86
2021/11/16 06:58:30;;;;;;;51.83;28.63;;;5.10;87.30;;;;;;5073006;28;20177;-86
2021/11/16 07:00:56;;;;;;;54.77;29.57;;;5.10;87.20;;;;;;5054908;28;20271;-87
2021/11/16 07:03:25;;;;;;;49.90;30.10;;;5.10;87.50;;;;;;5072905;28;20682;-86
2021/11/16 07:05:57;;;;;;;49.03;29.27;;;5.10;87.60;;;;;;5054865;28;20183;-87
2021/11/16 07:08:38;;;;;;;51.93;29.77;;;5.10;87.60;;;;;;5054948;28;20170;-87
2021/11/16 07:11:14;;;;;;;50.07;28.77;;;5.10;87.80;;;;;;5054913;28;20179;-86
2021/11/16 07:14:02;;;;;;;51.90;28.90;;;5.10;87.80;;;;;;5073024;28;20609;-86
2021/11/16 07:16:41;;;;;;;46.07;28.60;;;5.10;87.60;;;;;;5055040;28;20172;-87
2021/11/16 07:19:09;;;;;;;52.63;29.50;;;5.10;87.70;;;;;;5072939;28;20539;-87
2021/11/16 07:21:49;;;;;;;54.20;29.73;;;5.10;87.90;;;;;;5072704;28;20535;-86
2021/11/16 07:24:24;;;;;;;55.97;31.23;;;5.10;88.10;;;;;;5072825;28;20271;-87
2021/11/16 07:27:04;;;;;;;57.53;31.70;;;5.10;88.30;;;;;;5054787;28;20170;-86
2021/11/16 07:29:33;;;;;;;55.90;30.73;;;5.00;88.50;;;;;;5072669;28;20159;-86
2021/11/16 07:31:58;;;;;;;49.80;31.00;;;5.00;88.20;;;;;;5076245;28;20173;-86
2021/11/16 07:34:24;;;;;;;53.97;30.57;;;5.10;88.20;;;;;;5076201;28;20203;-86
2021/11/16 07:37:03;;;;;;;55.13;30.03;;;5.10;88.30;;;;;;5058498;28;20224;-86
2021/11/16 07:39:42;;;;;;;47.17;27.77;;;5.10;88.30;;;;;;5058453;28;20178;-86
2021/11/16 07:42:09;;;;;;;52.03;29.90;;;5.00;88.10;;;;;;5058368;28;20257;-86
2021/11/16 07:44:36;;;;;;;58.30;31.67;;;5.00;87.80;;;;;;5076140;28;20250;-86
2021/11/16 07:47:03;;;;;;;55.83;31.53;;;5.00;87.80;;;;;;5076159;28;20203;-86
2021/11/16 07:49:29;;;;;;;52.53;29.50;;;5.00;87.70;;;;;;5058177;28;20227;-86
2021/11/16 07:51:56;;;;;;;51.47;30.10;;;5.00;87.90;;;;;;5076185;28;20178;-86
2021/11/16 07:54:28;;;;;;;51.83;31.00;;;5.10;88.10;;;;;;5057888;28;20705;-86
2021/11/16 07:57:04;;;;;;;47.03;29.40;;;5.10;88.10;;;;;;5058228;28;20166;-87
2021/11/16 07:59:31;;;;;;;50.83;29.47;;;5.10;87.90;;;;;;5075957;28;20653;-87
2021/11/16 08:02:05;;;;;;;49.63;29.10;;;5.10;87.40;;;;;;5075862;28;20535;-87
2021/11/16 08:07:29;;;;;;;50.20;27.47;;;5.10;87.20;;;;;;5076451;28;20172;-87
2021/11/16 08:09:55;;;;;;;54.13;30.03;;;5.00;87.10;;;;;;5075339;28;20178;-86
2021/11/16 08:15:00;;;;;;;48.33;28.70;;;5.00;87.20;;;;;;5076053;28;20242;-87
2021/11/16 08:17:27;;;;;;;50.60;29.83;;;5.00;87.30;;;;;;5057722;28;20202;-87
2021/11/16 08:20:09;;;;;;;56.03;31.53;;;5.00;87.20;;;;;;5057791;28;20211;-87
2021/11/16 08:22:35;;;;;;;53.03;28.77;;;5.00;87.10;;;;;;5057583;28;20203;-86
2021/11/16 08:25:02;;;;;;;44.87;27.37;;;5.00;87.20;;;;;;5057630;28;20767;-87
2021/11/16 08:27:35;;;;;;;44.63;27.40;;;5.00;87.20;;;;;;5057508;28;20179;-87
2021/11/16 08:30:06;;;;;;;43.30;23.97;;;5.00;86.90;;;;;;5075504;28;20164;-87
2021/11/16 08:32:34;;;;;;;37.63;23.83;;;5.00;86.80;;;;;;5075299;28;20630;-86
2021/11/16 08:35:02;;;;;;;38.17;24.83;;;5.00;86.20;;;;;;5057337;28;20213;-87
2021/11/16 08:37:35;;;;;;;43.97;24.40;;;5.00;86.00;;;;;;5057468;28;20283;-84
2021/11/16 08:40:03;;;;;;;40.67;23.53;;;5.10;85.50;;;;;;5075430;28;20156;-86
2021/11/16 08:42:38;;;;;;;38.80;22.83;;;5.10;85.30;;;;;;5057026;28;20264;-86
2021/11/16 08:45:09;;;;;;;34.60;23.73;;;5.10;85.30;;;;;;5057364;28;20178;-87
2021/11/16 08:47:37;;;;;;;37.47;24.23;;;5.10;85.20;;;;;;5057366;28;20634;-87
2021/11/16 08:50:23;;;;;;;39.27;23.57;;;5.00;85.40;;;;;;5075157;28;20180;-86
2021/11/16 08:52:49;;;;;;;34.87;23.73;;;5.10;85.70;;;;;;5075035;28;20221;-87
2021/11/16 08:55:19;;;;;;;35.23;22.57;;;5.10;85.60;;;;;;5056966;28;20311;-86
2021/11/16 08:57:48;;;;;;;42.60;25.80;;;5.10;85.40;;;;;;5075020;28;20173;-86
2021/11/16 09:00:26;;;;;;;39.40;24.40;;;5.10;85.50;;;;;;5074930;28;20588;-86
2021/11/16 09:03:13;;;;;;;36.70;23.20;;;5.20;85.50;;;;;;5056886;28;20190;-86
2021/11/16 09:05:47;;;;;;;37.47;23.50;;;5.20;85.20;;;;;;5057204;28;20653;-86
2021/11/16 09:08:20;;;;;;;35.00;21.97;;;5.20;85.10;;;;;;5056856;28;20230;-87
2021/11/16 09:10:47;;;;;;;34.43;22.77;;;5.20;85.10;;;;;;5057067;28;20192;-86
2021/11/16 09:13:17;;;;;;;33.93;23.47;;;5.20;85.00;;;;;;5074490;28;20295;-86
2021/11/16 09:15:47;;;;;;;40.97;22.87;;;5.20;84.60;;;;;;5074485;28;20256;-86
2021/11/16 09:18:13;;;;;;;34.67;22.77;;;5.20;84.30;;;;;;5074648;28;20694;-86
2021/11/16 09:20:40;;;;;;;34.83;23.30;;;5.20;84.60;;;;;;5056734;28;20256;-87
2021/11/16 09:23:07;;;;;;;35.67;23.87;;;5.20;84.50;;;;;;5056474;28;20197;-86
2021/11/16 09:25:36;;;;;;;47.13;23.83;;;5.20;84.60;;;;;;5056520;28;20561;-86
2021/11/16 09:28:22;;;;;;;35.13;23.43;;;5.30;85.10;;;;;;5074309;28;20186;-86
2021/11/16 09:30:48;;;;;;;36.67;23.77;;;5.30;85.30;;;;;;5056469;28;20174;-86
2021/11/16 09:33:19;;;;;;;38.40;24.00;;;5.20;85.10;;;;;;5056217;28;20689;-86
2021/11/16 09:35:48;;;;;;;32.87;23.47;;;5.20;84.70;;;;;;5074181;28;20191;-86
2021/11/16 09:38:29;;;;;;;37.53;23.17;;;5.20;84.70;;;;;;5056345;28;20240;-86
2021/11/16 09:40:55;;;;;;;41.13;24.33;;;5.20;85.10;;;;;;5075049;28;20212;-86
2021/11/16 09:43:25;;;;;;;44.17;24.40;;;5.30;84.90;;;;;;5074152;28;20189;-86
2021/11/16 09:45:51;;;;;;;39.33;25.23;;;5.30;84.70;;;;;;5074082;28;20186;-86
2021/11/16 09:48:23;;;;;;;38.23;25.10;;;5.30;85.00;;;;;;5073976;28;20262;-86
2021/11/16 09:50:49;;;;;;;43.13;25.13;;;5.20;84.70;;;;;;5056210;28;20271;-87
2021/11/16 09:53:16;;;;;;;42.30;26.33;;;5.20;84.80;;;;;;5055431;28;20569;-87
2021/11/16 09:55:42;;;;;;;39.80;25.53;;;5.20;84.90;;;;;;5056055;28;20330;-87
2021/11/16 09:58:18;;;;;;;44.40;26.67;;;5.30;85.00;;;;;;5055849;28;20611;-87
2021/11/16 10:00:46;;;;;;;44.30;25.63;;;5.30;85.20;;;;;;5055910;28;20226;-87
2021/11/16 10:03:21;;;;;;;39.97;28.10;;;5.30;85.40;;;;;;5055833;28;20246;-87
2021/11/16 10:05:58;;;;;;;39.67;26.57;;;5.30;85.50;;;;;;5056079;28;20173;-87
2021/11/16 10:08:26;;;;;;;39.53;26.07;;;5.30;85.00;;;;;;5074085;28;20161;-86
2021/11/16 10:10:54;;;;;;;45.13;25.50;;;5.30;84.30;;;;;;5055778;28;20224;-87
2021/11/16 10:13:27;;;;;;;42.70;25.90;;;5.30;84.80;;;;;;5055863;28;20205;-87
2021/11/16 10:15:55;;;;;;;44.37;27.23;;;5.30;85.00;;;;;;5073533;28;20660;-87
2021/11/16 10:18:25;;;;;;;40.63;26.47;;;5.30;85.40;;;;;;5055874;28;20304;-87
2021/11/16 10:20:52;;;;;;;42.50;27.47;;;5.30;85.10;;;;;;5074297;28;20167;-87
2021/11/16 10:23:29;;;;;;;41.70;25.67;;;5.30;85.20;;;;;;5056090;28;20285;-87
2021/11/16 10:25:56;;;;;;;41.27;25.90;;;5.30;85.40;;;;;;5075596;28;20564;-87
2021/11/16 10:28:23;;;;;;;46.90;27.90;;;5.40;85.30;;;;;;5075422;28;20232;-87
2021/11/16 10:30:49;;;;;;;47.17;27.60;;;5.40;85.30;;;;;;5056577;28;20178;-86
2021/11/16 10:33:25;;;;;;;44.83;28.30;;;5.40;85.10;;;;;;5055139;28;20244;-87
2021/11/16 10:36:14;;;;;;;50.10;28.73;;;5.30;85.40;;;;;;5073473;28;20207;-87
2021/11/16 10:38:46;;;;;;;47.20;29.50;;;5.30;85.00;;;;;;5055991;28;20163;-87
2021/11/16 10:41:24;;;;;;;43.67;28.03;;;5.40;85.30;;;;;;5055336;28;20177;-87
2021/11/16 10:43:59;;;;;;;45.77;27.67;;;5.40;85.40;;;;;;5055531;28;20205;-87
2021/11/16 10:46:29;;;;;;;45.87;29.10;;;5.40;85.10;;;;;;5055298;28;20190;-86
2021/11/16 10:48:58;;;;;;;48.13;31.70;;;5.40;85.30;;;;;;5073101;28;20174;-87
2021/11/16 10:51:32;;;;;;;49.37;31.60;;;5.40;85.30;;;;;;5073007;28;20232;-87
2021/11/16 10:53:59;;;;;;;53.17;32.13;;;5.50;85.20;;;;;;5054791;28;20584;-86
2021/11/16 10:56:27;;;;;;;51.30;31.93;;;5.40;85.20;;;;;;5055233;28;20181;-87
2021/11/16 10:58:54;;;;;;;48.77;32.67;;;5.50;85.30;;;;;;5055145;28;20224;-87
2021/11/16 11:01:23;;;;;;;65.70;35.13;;;5.50;85.10;;;;;;5073108;28;20169;-87
2021/11/16 11:03:54;;;;;;;46.13;29.03;;;5.50;85.20;;;;;;5054913;28;20195;-87
2021/11/16 11:06:23;;;;;;;53.63;31.30;;;5.50;84.80;;;;;;5057844;28;20194;-87
2021/11/16 11:08:51;;;;;;;56.33;31.70;;;5.50;84.70;;;;;;5076993;28;20543;-87
2021/11/16 11:11:22;;;;;;;48.60;29.93;;;5.60;84.80;;;;;;5077029;28;20181;-88
2021/11/16 11:14:09;;;;;;;52.47;32.23;;;5.60;84.80;;;;;;5059001;28;20191;-87
2021/11/16 11:16:41;;;;;;;55.43;29.77;;;5.60;84.80;;;;;;5059002;28;20171;-87
2021/11/16 11:19:15;;;;;;;48.13;30.50;;;5.60;84.80;;;;;;5058863;28;20252;-85
2021/11/16 11:21:49;;;;;;;48.13;29.93;;;5.60;84.70;;;;;;5076804;28;20163;-85
2021/11/16 11:24:25;;;;;;;49.30;31.47;;;5.60;84.50;;;;;;5059791;28;20192;-87
2021/11/16 11:26:58;;;;;;;51.80;32.43;;;5.60;84.60;;;;;;5058819;28;20201;-87
2021/11/16 11:32:22;;;;;;;48.30;30.93;;;5.60;84.40;;;;;;5077247;28;20643;-87
2021/11/16 11:35:00;;;;;;;53.87;31.10;;;5.70;84.70;;;;;;5058682;28;20771;-88
2021/11/16 11:37:29;;;;;;;48.30;30.57;;;5.70;84.80;;;;;;5076473;28;20162;-87
2021/11/16 11:39:59;;;;;;;50.87;30.80;;;5.60;84.90;;;;;;5058454;28;20179;-88
2021/11/16 11:42:26;;;;;;;51.57;32.53;;;5.60;85.30;;;;;;5076747;28;20148;-88
2021/11/16 11:45:23;;;;;;;50.57;31.17;;;5.70;85.50;;;;;;5058278;28;20206;-88
2021/11/16 11:47:53;;;;;;;56.30;31.23;;;5.50;85.30;;;;;;5075609;28;20256;-88
2021/11/16 11:50:41;;;;;;;56.17;32.83;;;5.50;85.50;;;;;;5076338;28;20151;-88
2021/11/16 11:53:08;;;;;;;50.70;31.43;;;5.50;85.40;;;;;;5076233;28;20277;-88
2021/11/16 11:55:41;;;;;;;56.23;33.73;;;5.50;85.70;;;;;;5058222;28;20202;-87
2021/11/16 11:58:07;;;;;;;67.03;36.10;;;5.50;86.00;;;;;;5058182;28;20170;-87
2021/11/16 12:00:35;;;;;;;56.30;34.43;;;5.50;86.00;;;;;;5076023;28;20224;-87
2021/11/16 12:03:02;;;;;;;58.27;35.83;;;5.50;86.10;;;;;;5075907;28;20697;-88
2021/11/16 12:05:30;;;;;;;60.33;36.23;;;5.50;86.40;;;;;;5075980;28;20538;-88
2021/11/16 12:07:56;;;;;;;56.70;34.70;;;5.50;86.50;;;;;;5076101;28;20171;-88
2021/11/16 12:10:22;;;;;;;59.53;35.47;;;5.60;86.30;;;;;;5057935;28;20183;-88
2021/11/16 12:12:49;;;;;;;56.37;36.30;;;5.60;86.10;;;;;;5075873;28;20198;-87
2021/11/16 12:15:30;;;;;;;62.43;37.70;;;5.50;86.20;;;;;;5075621;28;20742;-87
2021/11/16 12:17:58;;;;;;;67.63;37.87;;;5.60;86.30;;;;;;5057532;28;20658;-88
2021/11/16 12:20:49;;;;;;;61.33;35.83;;;5.60;86.50;;;;;;5075688;28;20224;-88
2021/11/16 12:23:17;;;;;;;59.63;34.70;;;5.50;86.30;;;;;;5058165;28;20689;-88
2021/11/16 12:25:46;;;;;;;59.17;33.27;;;5.50;86.40;;;;;;5075608;28;20178;-88
2021/11/16 12:28:32;;;;;;;58.60;34.93;;;5.50;86.40;;;;;;5057644;28;20532;-88
2021/11/16 12:31:01;;;;;;;63.37;35.67;;;5.50;86.50;;;;;;5057471;28;20215;-87
2021/11/16 12:33:47;;;;;;;63.67;37.83;;;5.50;86.50;;;;;;5057760;28;20218;-88
2021/11/16 12:36:43;;;;;;;55.97;34.10;;;5.40;86.70;;;;;;5059326;28;20202;-86
2021/11/16 12:39:16;;;;;;;57.50;37.27;;;5.30;86.70;;;;;;5058296;28;20265;-86
2021/11/16 12:41:43;;;;;;;62.33;35.40;;;5.30;87.00;;;;;;5057470;28;20264;-89
2021/11/16 12:44:16;;;;;;;60.27;34.20;;;5.20;87.30;;;;;;5057107;28;20191;-85
2021/11/16 12:46:44;;;;;;;62.73;37.03;;;5.10;87.10;;;;;;5075065;28;20197;-86
2021/11/16 12:49:30;;;;;;;61.67;36.10;;;5.10;87.30;;;;;;5075667;28;20190;-86
2021/11/16 12:51:59;;;;;;;64.40;35.97;;;5.10;87.70;;;;;;5075442;28;20242;-87
2021/11/16 12:54:30;;;;;;;64.37;38.57;;;5.20;87.70;;;;;;5057411;28;20213;-86
2021/11/16 12:56:56;;;;;;;67.03;38.90;;;5.20;87.70;;;;;;5075502;28;20489;-87
2021/11/16 12:59:43;;;;;;;73.23;42.77;;;5.10;87.60;;;;;;5057947;28;20189;-88
2021/11/16 13:02:27;;;;;;;68.63;38.67;;;5.20;87.70;;;;;;5047532;28;20187;-86
2021/11/16 13:04:59;;;;;;;60.73;37.13;;;5.20;87.80;;;;;;5057874;28;20673;-88
2021/11/16 13:07:38;;;;;;;63.00;35.77;;;5.20;87.90;;;;;;5057794;28;20209;-86